createdAt,value
2022-12-20T00:00:02.902Z,23.6
2022-12-20T00:02:03.094Z,23.1
2022-12-20T00:04:05.995Z,25.2
2022-12-20T00:06:03.169Z,23.4
2022-12-20T00:08:02.707Z,23.8
2022-12-20T00:10:02.749Z,24.2
2022-12-20T00:12:03.446Z,26.0
2022-12-20T00:14:02.962Z,26.6
2022-12-20T00:16:06.867Z,25.3
2022-12-20T00:18:03.292Z,24.6
2022-12-20T00:20:02.804Z,26.2
2022-12-20T00:22:02.895Z,25.2
2022-12-20T00:24:03.258Z,26.8
2022-12-20T00:26:05.381Z,26.5
2022-12-20T00:28:04.100Z,26.2
2022-12-20T00:30:03.485Z,25.6
2022-12-20T00:32:02.779Z,25.6
2022-12-20T00:34:03.010Z,25.7
2022-12-20T00:36:03.894Z,25.1
2022-12-20T00:38:02.911Z,26.0
2022-12-20T00:40:04.846Z,26.4
2022-12-20T00:42:02.759Z,25.1
2022-12-20T00:44:05.085Z,26.8
2022-12-20T00:46:03.706Z,25.3
2022-12-20T00:48:02.746Z,26.4
2022-12-20T00:50:02.929Z,28.5
2022-12-20T00:52:03.031Z,28.5
2022-12-20T00:54:02.769Z,25.2
2022-12-20T00:56:05.535Z,24.6
2022-12-20T00:58:02.726Z,24.6
2022-12-20T01:00:02.887Z,25.0
2022-12-20T01:02:03.405Z,24.6
2022-12-20T01:04:04.594Z,26.9
2022-12-20T01:06:03.749Z,24.4
2022-12-20T01:08:04.685Z,23.9
2022-12-20T01:10:02.726Z,27.0
2022-12-20T01:12:03.023Z,25.7
2022-12-20T01:14:07.167Z,25.3
2022-12-20T01:16:06.749Z,24.9
2022-12-20T01:18:02.762Z,25.6
2022-12-20T01:20:03.875Z,25.4
2022-12-20T01:22:03.293Z,24.7
2022-12-20T01:24:02.940Z,25.3
2022-12-20T01:26:05.358Z,25.6
2022-12-20T01:28:02.939Z,25.7
2022-12-20T01:30:03.544Z,24.9
2022-12-20T01:32:02.790Z,26.2
2022-12-20T01:34:03.023Z,26.9
2022-12-20T01:36:06.058Z,25.7
2022-12-20T01:38:02.777Z,24.1
2022-12-20T01:40:03.442Z,27.7
2022-12-20T01:42:03.388Z,24.3
2022-12-20T01:44:05.413Z,24.9
2022-12-20T01:46:02.979Z,26.6
2022-12-20T01:48:03.207Z,24.3
2022-12-20T01:50:04.845Z,25.1
2022-12-20T01:52:07.149Z,26.0
2022-12-20T01:54:08.193Z,24.3
2022-12-20T01:56:06.155Z,24.2
2022-12-20T01:58:06.660Z,24.6
2022-12-20T02:00:05.036Z,24.7
2022-12-20T02:02:07.374Z,24.4
2022-12-20T02:04:03.299Z,25.1
2022-12-20T02:06:17.885Z,25.6
2022-12-20T02:08:03.425Z,25.3
2022-12-20T02:10:04.235Z,25.1
2022-12-20T02:12:12.074Z,26.1
2022-12-20T02:14:14.918Z,25.6
2022-12-20T02:16:04.174Z,25.4
2022-12-20T02:18:13.782Z,25.3
2022-12-20T02:20:19.465Z,25.3
2022-12-20T02:22:14.514Z,26.0
2022-12-20T02:24:21.808Z,26.1
2022-12-20T02:26:18.601Z,25.4
2022-12-20T02:28:12.600Z,25.5
2022-12-20T02:30:07.768Z,26.6
2022-12-20T02:32:09.395Z,28.7
2022-12-20T02:34:05.903Z,26.2
2022-12-20T02:36:04.590Z,28.9
2022-12-20T02:38:05.830Z,27.7
2022-12-20T02:40:05.021Z,27.0
2022-12-20T02:42:07.229Z,27.5
2022-12-20T02:44:15.166Z,27.3
2022-12-20T02:46:04.079Z,26.3
2022-12-20T02:48:06.327Z,29.6
2022-12-20T02:50:07.065Z,28.5
2022-12-20T02:52:03.945Z,26.9
2022-12-20T02:54:03.061Z,26.6
2022-12-20T02:56:10.874Z,27.9
2022-12-20T02:58:12.059Z,29.1
2022-12-20T03:00:06.736Z,26.1
2022-12-20T03:02:05.574Z,26.5
2022-12-20T03:04:04.935Z,28.2
2022-12-20T03:06:04.008Z,27.2
2022-12-20T03:08:03.023Z,27.0
2022-12-20T03:10:02.715Z,27.1
2022-12-20T03:12:03.959Z,28.3
2022-12-20T03:14:02.884Z,27.7
2022-12-20T03:16:02.800Z,28.0
2022-12-20T03:18:03.296Z,27.3
2022-12-20T03:20:02.891Z,28.0
2022-12-20T03:22:02.811Z,26.0
2022-12-20T03:24:03.077Z,26.5
2022-12-20T03:26:02.766Z,27.9
2022-12-20T03:28:02.802Z,27.7
2022-12-20T03:30:03.866Z,27.6
2022-12-20T03:32:02.711Z,27.0
2022-12-20T03:34:03.474Z,27.5
2022-12-20T03:36:02.908Z,27.9
2022-12-20T03:38:02.946Z,26.8
2022-12-20T03:40:03.515Z,26.4
2022-12-20T03:42:03.626Z,25.6
2022-12-20T03:44:02.799Z,25.8
2022-12-20T03:46:02.806Z,25.9
2022-12-20T03:48:02.952Z,26.4
2022-12-20T03:50:03.034Z,26.0
2022-12-20T03:52:02.668Z,26.9
2022-12-20T03:54:03.050Z,25.7
2022-12-20T03:56:02.728Z,27.4
2022-12-20T03:58:02.763Z,26.9
2022-12-20T04:00:04.112Z,27.6
2022-12-20T04:02:03.744Z,26.9
2022-12-20T04:04:03.878Z,24.9
2022-12-20T04:06:02.762Z,27.3
2022-12-20T04:08:03.365Z,29.5
2022-12-20T04:10:02.745Z,26.9
2022-12-20T04:12:03.806Z,26.3
2022-12-20T04:14:02.727Z,25.6
2022-12-20T04:16:02.795Z,26.2
2022-12-20T04:18:02.762Z,26.3
2022-12-20T04:20:12.131Z,26.1
2022-12-20T04:22:05.137Z,26.7
2022-12-20T04:24:04.880Z,26.8
2022-12-20T04:26:04.527Z,26.6
2022-12-20T04:28:02.693Z,25.8
2022-12-20T04:30:02.762Z,24.5
2022-12-20T04:32:02.690Z,27.2
2022-12-20T04:34:02.711Z,26.1
2022-12-20T04:36:03.957Z,30.0
2022-12-20T04:38:02.758Z,29.4
2022-12-20T04:40:02.843Z,27.2
2022-12-20T04:42:02.724Z,25.7
2022-12-20T04:44:02.691Z,26.0
2022-12-20T04:46:02.791Z,26.9
2022-12-20T04:48:28.550Z,26.5
2022-12-20T04:50:02.954Z,27.3
2022-12-20T04:52:12.898Z,27.2
2022-12-20T04:54:02.770Z,28.0
2022-12-20T04:56:03.359Z,27.4
2022-12-20T04:58:07.430Z,28.1
2022-12-20T05:00:03.859Z,28.1
2022-12-20T05:02:02.937Z,28.7
2022-12-20T05:04:02.810Z,28.7
2022-12-20T05:06:03.415Z,27.0
2022-12-20T05:08:02.805Z,28.9
2022-12-20T05:10:02.762Z,29.7
2022-12-20T05:12:03.307Z,24.9
2022-12-20T05:14:02.884Z,28.7
2022-12-20T05:16:03.817Z,28.1
2022-12-20T05:18:03.447Z,27.0
2022-12-20T05:20:04.238Z,27.1
2022-12-20T05:22:12.168Z,28.0
2022-12-20T05:24:12.898Z,27.4
2022-12-20T05:26:12.696Z,27.4
2022-12-20T05:28:03.493Z,26.2
2022-12-20T05:30:02.919Z,24.9
2022-12-20T05:32:02.723Z,24.9
2022-12-20T05:34:02.726Z,27.0
2022-12-20T05:36:03.261Z,27.4
2022-12-20T05:38:03.528Z,26.5
2022-12-20T05:40:04.198Z,25.5
2022-12-20T05:42:03.370Z,27.3
2022-12-20T05:44:02.718Z,26.9
2022-12-20T05:46:03.489Z,27.2
2022-12-20T05:48:03.565Z,26.0
2022-12-20T05:50:04.095Z,26.0
2022-12-20T05:52:03.500Z,25.5
2022-12-20T05:54:02.904Z,24.2
2022-12-20T05:56:03.984Z,24.6
2022-12-20T05:58:02.751Z,24.4
2022-12-20T06:00:04.186Z,25.0
2022-12-20T06:02:03.181Z,22.6
2022-12-20T06:04:03.591Z,23.0
2022-12-20T06:06:06.011Z,21.9
2022-12-20T06:08:03.187Z,21.1
2022-12-20T06:10:02.751Z,21.0
2022-12-20T06:12:03.632Z,18.5
2022-12-20T06:14:03.575Z,19.2
2022-12-20T06:16:03.672Z,18.9
2022-12-20T06:18:03.576Z,19.2
2022-12-20T06:20:03.787Z,20.5
2022-12-20T06:22:03.113Z,20.4
2022-12-20T06:24:03.655Z,18.7
2022-12-20T06:26:04.490Z,19.9
2022-12-20T06:28:02.742Z,20.6
2022-12-20T06:30:03.401Z,20.2
2022-12-20T06:32:04.853Z,19.0
2022-12-20T06:34:02.716Z,20.2
2022-12-20T06:36:03.506Z,19.8
2022-12-20T06:38:02.882Z,19.4
2022-12-20T06:40:03.207Z,21.1
2022-12-20T06:42:02.985Z,17.6
2022-12-20T06:44:03.037Z,20.4
2022-12-20T06:46:03.365Z,20.6
2022-12-20T06:48:03.433Z,19.5
2022-12-20T06:50:03.435Z,18.5
2022-12-20T06:52:02.705Z,18.1
2022-12-20T06:54:03.580Z,18.5
2022-12-20T06:56:03.449Z,19.2
2022-12-20T06:58:04.258Z,19.6
2022-12-20T07:00:03.343Z,17.8
2022-12-20T07:02:05.230Z,18.5
2022-12-20T07:04:02.805Z,18.0
2022-12-20T07:06:03.742Z,19.0
2022-12-20T07:08:04.065Z,17.6
2022-12-20T07:10:03.117Z,17.6
2022-12-20T07:12:02.769Z,19.7
2022-12-20T07:14:02.894Z,18.8
2022-12-20T07:16:04.523Z,19.0
2022-12-20T07:18:03.268Z,18.3
2022-12-20T07:22:03.912Z,17.7
2022-12-20T07:24:02.771Z,17.3
2022-12-20T07:26:03.681Z,18.6
2022-12-20T07:28:03.944Z,19.1
2022-12-20T07:30:02.787Z,18.0
2022-12-20T07:32:02.932Z,18.7
2022-12-20T07:34:02.986Z,19.2
2022-12-20T07:36:04.571Z,18.6
2022-12-20T07:38:02.771Z,18.9
2022-12-20T07:40:03.985Z,18.8
2022-12-20T07:42:02.807Z,20.1
2022-12-20T07:44:03.074Z,18.6
2022-12-20T07:46:04.203Z,18.6
2022-12-20T07:48:09.301Z,19.2
2022-12-20T07:50:03.804Z,18.3
2022-12-20T07:52:04.518Z,17.7
2022-12-20T07:54:08.845Z,18.1
2022-12-20T07:56:13.505Z,18.2
2022-12-20T07:58:07.998Z,17.7
2022-12-20T08:00:05.208Z,17.4
2022-12-20T08:02:05.510Z,17.2
2022-12-20T08:04:10.673Z,16.4
2022-12-20T08:06:05.343Z,16.5
2022-12-20T08:08:04.073Z,16.2
2022-12-20T08:10:02.960Z,16.9
2022-12-20T08:12:02.992Z,17.0
2022-12-20T08:14:04.884Z,16.0
2022-12-20T08:16:03.853Z,16.8
2022-12-20T08:18:05.791Z,16.5
2022-12-20T08:20:05.348Z,15.1
2022-12-20T08:22:03.750Z,15.9
2022-12-20T08:24:02.741Z,16.4
2022-12-20T08:26:03.976Z,16.0
2022-12-20T08:28:03.727Z,15.1
2022-12-20T08:30:02.849Z,15.6
2022-12-20T08:32:02.818Z,14.6
2022-12-20T08:34:02.892Z,15.6
2022-12-20T08:36:05.910Z,15.2
2022-12-20T08:38:02.718Z,14.8
2022-12-20T08:40:03.387Z,14.6
2022-12-20T08:42:04.667Z,14.7
2022-12-20T08:44:03.495Z,14.4
2022-12-20T08:46:04.123Z,15.3
2022-12-20T08:48:02.987Z,15.6
2022-12-20T08:50:03.092Z,15.3
2022-12-20T08:52:02.817Z,14.2
2022-12-20T08:54:02.824Z,14.3
2022-12-20T08:56:06.004Z,14.6
2022-12-20T08:58:03.008Z,14.8
2022-12-20T09:00:03.233Z,13.7
2022-12-20T09:02:03.046Z,14.6
2022-12-20T09:04:03.808Z,14.8
2022-12-20T09:06:06.942Z,14.9
2022-12-20T09:08:02.778Z,14.3
2022-12-20T09:10:02.956Z,14.3
2022-12-20T09:12:03.147Z,14.9
2022-12-20T09:14:03.328Z,14.5
2022-12-20T09:16:04.412Z,14.6
2022-12-20T09:18:05.318Z,14.3
2022-12-20T09:20:02.779Z,14.3
2022-12-20T09:22:03.920Z,14.5
2022-12-20T09:24:02.863Z,14.2
2022-12-20T09:26:03.776Z,14.6
2022-12-20T09:28:02.903Z,14.5
2022-12-20T09:30:02.775Z,14.8
2022-12-20T09:32:02.760Z,15.4
2022-12-20T09:34:02.877Z,14.8
2022-12-20T09:36:04.364Z,13.5
2022-12-20T09:38:03.495Z,13.1
2022-12-20T09:40:04.273Z,14.4
2022-12-20T09:42:08.912Z,13.6
2022-12-20T09:44:12.614Z,14.0
2022-12-20T09:46:04.060Z,13.9
2022-12-20T09:48:05.331Z,14.0
2022-12-20T09:50:05.756Z,14.1
2022-12-20T09:52:22.131Z,14.6
2022-12-20T09:54:15.468Z,14.6
2022-12-20T09:56:10.835Z,14.8
2022-12-20T09:58:19.171Z,13.7
2022-12-20T10:00:11.977Z,14.2
2022-12-20T10:02:35.449Z,14.9
2022-12-20T10:04:06.181Z,14.1
2022-12-20T10:06:14.016Z,14.6
2022-12-20T10:08:09.649Z,14.5
2022-12-20T10:10:21.752Z,14.6
2022-12-20T10:12:12.752Z,14.7
2022-12-20T10:14:13.897Z,14.7
2022-12-20T10:16:18.434Z,14.5
2022-12-20T10:18:19.477Z,14.6
2022-12-20T10:20:14.270Z,14.1
2022-12-20T10:22:12.084Z,13.9
2022-12-20T10:24:08.005Z,14.2
2022-12-20T10:26:08.383Z,13.7
2022-12-20T10:28:11.355Z,14.7
2022-12-20T10:30:02.751Z,15.4
2022-12-20T10:32:10.401Z,15.3
2022-12-20T10:34:03.335Z,14.3
2022-12-20T10:36:21.826Z,14.8
2022-12-20T10:38:07.467Z,14.5
2022-12-20T10:40:07.396Z,15.2
2022-12-20T10:42:02.712Z,15.2
2022-12-20T10:44:14.975Z,15.3
2022-12-20T10:46:06.384Z,14.5
2022-12-20T10:48:06.376Z,14.9
2022-12-20T10:50:18.368Z,14.7
2022-12-20T10:52:11.855Z,14.6
2022-12-20T10:54:14.044Z,15.3
2022-12-20T10:56:17.455Z,14.4
2022-12-20T10:58:05.617Z,15.5
2022-12-20T11:00:10.014Z,15.3
2022-12-20T11:02:13.784Z,15.4
2022-12-20T11:04:05.624Z,15.6
2022-12-20T11:06:04.162Z,14.6
2022-12-20T11:08:40.829Z,13.9
2022-12-20T11:10:19.836Z,15.5
2022-12-20T11:12:06.838Z,14.7
2022-12-20T11:14:14.948Z,14.8
2022-12-20T11:16:02.882Z,14.7
2022-12-20T11:18:06.902Z,14.7
2022-12-20T11:20:19.350Z,14.5
2022-12-20T11:22:16.474Z,15.0
2022-12-20T11:24:10.953Z,15.0
2022-12-20T11:26:19.930Z,15.4
2022-12-20T11:28:21.770Z,15.1
2022-12-20T11:30:09.677Z,15.2
2022-12-20T11:32:11.182Z,14.7
2022-12-20T11:34:19.569Z,16.0
2022-12-20T11:36:07.866Z,15.2
2022-12-20T11:38:10.059Z,15.3
2022-12-20T11:40:15.888Z,14.8
2022-12-20T11:42:14.925Z,15.7
2022-12-20T11:44:26.581Z,15.5
2022-12-20T11:46:17.968Z,15.4
2022-12-20T11:48:18.341Z,14.6
2022-12-20T11:50:17.894Z,14.6
2022-12-20T11:52:10.403Z,15.3
2022-12-20T11:54:08.263Z,16.1
2022-12-20T11:56:09.858Z,15.4
2022-12-20T11:58:19.732Z,15.3
2022-12-20T12:00:04.031Z,15.6
2022-12-20T12:02:10.775Z,15.1
2022-12-20T12:04:12.084Z,16.3
2022-12-20T12:06:08.068Z,15.0
2022-12-20T12:08:10.004Z,15.0
2022-12-20T12:10:13.888Z,14.3
2022-12-20T12:12:10.022Z,15.3
2022-12-20T12:14:06.038Z,15.3
2022-12-20T12:16:08.633Z,15.3
2022-12-20T12:18:07.799Z,15.4
2022-12-20T12:20:19.116Z,14.9
2022-12-20T12:22:09.588Z,15.3
2022-12-20T12:24:12.454Z,16.0
2022-12-20T12:26:07.399Z,16.4
2022-12-20T12:28:05.521Z,15.7
2022-12-20T12:30:02.817Z,15.2
2022-12-20T12:32:08.768Z,16.1
2022-12-20T12:34:12.163Z,15.7
2022-12-20T12:36:19.165Z,16.1
2022-12-20T12:38:18.035Z,15.2
2022-12-20T12:40:21.728Z,15.6
2022-12-20T12:42:21.784Z,15.7
2022-12-20T12:44:21.720Z,15.6
2022-12-20T12:46:14.506Z,15.2
2022-12-20T12:48:07.966Z,15.3
2022-12-20T12:50:05.217Z,15.7
2022-12-20T12:52:06.644Z,15.2
2022-12-20T12:54:13.779Z,15.4
2022-12-20T12:56:42.763Z,15.3
2022-12-20T12:58:14.580Z,15.4
2022-12-20T13:00:03.751Z,16.0
2022-12-20T13:02:21.987Z,15.3
2022-12-20T13:04:21.761Z,16.0
2022-12-20T13:06:21.766Z,15.1
2022-12-20T13:08:04.690Z,15.7
2022-12-20T13:10:24.464Z,16.1
2022-12-20T13:12:21.738Z,15.3
2022-12-20T13:14:21.952Z,15.7
2022-12-20T13:16:10.166Z,16.4
2022-12-20T13:18:21.747Z,15.5
2022-12-20T13:20:12.479Z,15.7
2022-12-20T13:22:21.645Z,15.9
2022-12-20T13:24:21.767Z,16.0
2022-12-20T13:26:21.776Z,15.7
2022-12-20T13:28:22.230Z,15.3
2022-12-20T13:30:22.225Z,15.4
2022-12-20T13:32:13.124Z,16.2
2022-12-20T13:34:03.088Z,16.2
2022-12-20T13:36:05.407Z,15.7
2022-12-20T13:38:05.524Z,15.4
2022-12-20T13:40:05.716Z,16.8
2022-12-20T13:42:17.160Z,15.9
2022-12-20T13:44:21.785Z,16.0
2022-12-20T13:46:14.118Z,15.6
2022-12-20T13:48:11.059Z,15.6
2022-12-20T13:50:21.991Z,15.8
2022-12-20T13:52:16.350Z,15.7
2022-12-20T13:54:05.442Z,15.7
2022-12-20T13:56:21.772Z,15.0
2022-12-20T13:58:10.231Z,15.0
2022-12-20T14:00:07.851Z,16.3
2022-12-20T14:02:18.064Z,16.4
2022-12-20T14:04:06.867Z,15.3
2022-12-20T14:06:05.049Z,15.4
2022-12-20T14:08:07.378Z,15.7
2022-12-20T14:10:05.326Z,16.2
2022-12-20T14:12:06.008Z,16.6
2022-12-20T14:14:04.737Z,16.6
2022-12-20T14:16:10.586Z,16.2
2022-12-20T14:18:16.105Z,15.7
2022-12-20T14:20:04.482Z,16.2
2022-12-20T14:22:02.941Z,15.8
2022-12-20T14:24:04.641Z,15.7
2022-12-20T14:26:04.056Z,16.6
2022-12-20T14:28:03.569Z,16.3
2022-12-20T14:30:02.789Z,16.5
2022-12-20T14:32:05.628Z,16.5
2022-12-20T14:34:05.263Z,16.3
2022-12-20T14:36:18.683Z,16.0
2022-12-20T14:38:03.879Z,15.4
2022-12-20T14:40:14.469Z,15.5
2022-12-20T14:42:12.905Z,16.1
2022-12-20T14:44:14.355Z,16.3
2022-12-20T14:46:22.177Z,16.4
2022-12-20T14:48:07.100Z,15.6
2022-12-20T14:50:06.315Z,15.0
2022-12-20T14:52:14.427Z,15.1
2022-12-20T14:54:03.111Z,14.6
2022-12-20T14:56:03.516Z,16.2
2022-12-20T14:58:15.923Z,17.1
2022-12-20T15:00:13.699Z,15.8
2022-12-20T15:02:21.995Z,16.0
2022-12-20T15:04:03.103Z,14.6
2022-12-20T15:06:02.842Z,16.5
2022-12-20T15:08:13.118Z,16.2
2022-12-20T15:10:02.933Z,15.8
2022-12-20T15:12:03.719Z,15.8
2022-12-20T15:14:10.771Z,15.8
2022-12-20T15:16:06.095Z,16.1
2022-12-20T15:18:08.739Z,15.8
2022-12-20T15:20:02.769Z,15.4
2022-12-20T15:22:03.197Z,15.3
2022-12-20T15:24:07.765Z,15.3
2022-12-20T15:26:04.212Z,15.5
2022-12-20T15:28:02.895Z,14.9
2022-12-20T15:30:02.807Z,15.2
2022-12-20T15:32:08.911Z,16.2
2022-12-20T15:34:12.029Z,16.2
2022-12-20T15:36:02.727Z,15.5
2022-12-20T15:38:02.706Z,15.8
2022-12-20T15:40:02.934Z,15.8
2022-12-20T15:42:06.271Z,16.5
2022-12-20T15:44:06.304Z,15.6
2022-12-20T15:46:03.063Z,15.6
2022-12-20T15:48:03.297Z,16.3
2022-12-20T15:50:03.348Z,15.3
2022-12-20T15:52:02.899Z,15.2
2022-12-20T15:54:05.575Z,16.1
2022-12-20T15:56:02.877Z,16.5
2022-12-20T15:58:03.450Z,16.3
2022-12-20T16:00:06.369Z,15.7
2022-12-20T16:02:03.987Z,16.4
2022-12-20T16:04:03.088Z,15.1
2022-12-20T16:06:02.726Z,16.3
2022-12-20T16:08:02.781Z,15.7
2022-12-20T16:10:03.546Z,15.3
2022-12-20T16:12:03.446Z,16.4
2022-12-20T16:14:02.823Z,14.8
2022-12-20T16:16:03.006Z,14.8
2022-12-20T16:18:02.751Z,16.3
2022-12-20T16:20:02.948Z,15.9
2022-12-20T16:22:03.666Z,16.3
2022-12-20T16:24:03.799Z,16.6
2022-12-20T16:26:02.736Z,17.9
2022-12-20T16:28:03.913Z,17.1
2022-12-20T16:30:02.832Z,16.5
2022-12-20T16:32:07.635Z,17.1
2022-12-20T16:34:05.795Z,17.3
2022-12-20T16:36:02.736Z,15.6
2022-12-20T16:38:03.074Z,16.2
2022-12-20T16:40:02.949Z,17.3
2022-12-20T16:42:02.740Z,17.0
2022-12-20T16:44:04.318Z,16.8
2022-12-20T16:46:02.953Z,16.1
2022-12-20T16:48:02.727Z,16.5
2022-12-20T16:50:03.440Z,15.6
2022-12-20T16:52:03.688Z,17.2
2022-12-20T16:54:20.393Z,15.6
2022-12-20T16:56:02.904Z,16.7
2022-12-20T16:58:02.841Z,16.1
2022-12-20T17:00:04.434Z,16.4
2022-12-20T17:02:03.002Z,14.8
2022-12-20T17:04:04.843Z,16.8
2022-12-20T17:06:02.914Z,15.7
2022-12-20T17:08:03.555Z,16.5
2022-12-20T17:10:10.917Z,14.4
2022-12-20T17:12:03.908Z,15.9
2022-12-20T17:14:06.308Z,15.7
2022-12-20T17:16:03.838Z,15.5
2022-12-20T17:18:02.750Z,14.6
2022-12-20T17:20:03.032Z,16.8
2022-12-20T17:24:05.606Z,15.3
2022-12-20T17:26:03.081Z,15.4
2022-12-20T17:28:02.894Z,15.6
2022-12-20T17:30:02.799Z,15.6
2022-12-20T17:32:03.504Z,15.6
2022-12-20T17:34:04.033Z,13.9
2022-12-20T17:36:02.983Z,15.0
2022-12-20T17:38:06.542Z,15.0
2022-12-20T17:40:03.425Z,14.0
2022-12-20T17:42:02.827Z,13.9
2022-12-20T17:44:05.371Z,14.3
2022-12-20T17:46:03.485Z,14.6
2022-12-20T17:48:02.784Z,14.6
2022-12-20T17:50:03.073Z,14.5
2022-12-20T17:52:02.711Z,14.4
2022-12-20T17:54:03.511Z,14.2
2022-12-20T17:56:02.741Z,14.4
2022-12-20T17:58:02.995Z,13.6
2022-12-20T18:00:03.081Z,15.6
2022-12-20T18:02:03.293Z,14.9
2022-12-20T18:04:06.982Z,15.0
2022-12-20T18:06:08.267Z,14.1
2022-12-20T18:08:02.911Z,14.7
2022-12-20T18:10:02.921Z,14.6
2022-12-20T18:12:02.983Z,15.0
2022-12-20T18:14:03.284Z,14.3
2022-12-20T18:16:05.677Z,15.3
2022-12-20T18:18:03.420Z,14.4
2022-12-20T18:20:03.220Z,15.1
2022-12-20T18:22:04.597Z,15.3
2022-12-20T18:24:03.976Z,15.3
2022-12-20T18:26:09.735Z,16.5
2022-12-20T18:28:02.756Z,15.3
2022-12-20T18:30:03.133Z,15.4
2022-12-20T18:32:02.800Z,14.8
2022-12-20T18:34:03.727Z,15.9
2022-12-20T18:36:07.394Z,15.8
2022-12-20T18:38:04.629Z,15.0
2022-12-20T18:40:03.581Z,15.3
2022-12-20T18:42:02.741Z,15.1
2022-12-20T18:44:06.003Z,15.8
2022-12-20T18:46:04.424Z,15.9
2022-12-20T18:48:03.055Z,15.2
2022-12-20T18:50:04.333Z,16.8
2022-12-20T18:52:02.734Z,15.2
2022-12-20T18:54:04.132Z,16.1
2022-12-20T18:56:03.983Z,16.1
2022-12-20T18:58:03.514Z,15.7
2022-12-20T19:00:03.439Z,14.5
2022-12-20T19:02:03.138Z,15.1
2022-12-20T19:04:05.850Z,15.2
2022-12-20T19:06:03.500Z,15.4
2022-12-20T19:08:02.785Z,14.0
2022-12-20T19:10:03.707Z,15.2
2022-12-20T19:12:05.345Z,15.3
2022-12-20T19:14:03.139Z,14.5
2022-12-20T19:16:05.388Z,14.1
2022-12-20T19:18:03.068Z,15.6
2022-12-20T19:20:03.105Z,14.6
2022-12-20T19:22:02.996Z,16.2
2022-12-20T19:24:06.409Z,14.8
2022-12-20T19:26:05.529Z,15.1
2022-12-20T19:28:03.238Z,15.3
2022-12-20T19:30:03.511Z,15.2
2022-12-20T19:32:02.777Z,14.9
2022-12-20T19:34:06.258Z,14.8
2022-12-20T19:36:09.536Z,14.8
2022-12-20T19:38:02.754Z,13.5
2022-12-20T19:40:02.705Z,15.1
2022-12-20T19:42:24.918Z,15.1
2022-12-20T19:44:04.298Z,15.0
2022-12-20T19:46:03.808Z,15.4
2022-12-20T19:48:02.967Z,15.3
2022-12-20T19:50:05.504Z,15.4
2022-12-20T19:52:02.707Z,15.1
2022-12-20T19:54:03.413Z,15.4
2022-12-20T19:56:04.513Z,15.5
2022-12-20T19:58:03.518Z,16.3
2022-12-20T20:00:03.087Z,14.7
2022-12-20T20:02:03.081Z,16.7
2022-12-20T20:04:04.742Z,15.1
2022-12-20T20:06:03.233Z,14.9
2022-12-20T20:08:04.318Z,16.0
2022-12-20T20:10:02.773Z,15.9
2022-12-20T20:12:03.167Z,16.0
2022-12-20T20:14:03.564Z,15.2
2022-12-20T20:16:04.515Z,15.2
2022-12-20T20:18:03.157Z,16.6
2022-12-20T20:20:03.026Z,15.3
2022-12-20T20:22:02.695Z,15.8
2022-12-20T20:24:03.066Z,15.6
2022-12-20T20:26:05.816Z,16.1
2022-12-20T20:28:03.206Z,15.6
2022-12-20T20:30:03.936Z,15.6
2022-12-20T20:32:03.602Z,15.8
2022-12-20T20:34:03.706Z,15.7
2022-12-20T20:36:03.972Z,16.6
2022-12-20T20:38:03.399Z,15.6
2022-12-20T20:40:03.366Z,16.3
2022-12-20T20:42:02.831Z,15.9
2022-12-20T20:44:02.862Z,15.1
2022-12-20T20:46:03.733Z,15.2
2022-12-20T20:48:06.117Z,15.9
2022-12-20T20:50:02.760Z,16.1
2022-12-20T20:52:02.744Z,15.4
2022-12-20T20:54:03.596Z,15.6
2022-12-20T20:56:03.060Z,15.6
2022-12-20T20:58:03.625Z,15.5
2022-12-20T21:00:03.948Z,15.2
2022-12-20T21:02:03.023Z,15.1
2022-12-20T21:04:03.191Z,15.7
2022-12-20T21:06:39.795Z,15.3
2022-12-20T21:08:02.692Z,16.1
2022-12-20T21:10:04.579Z,16.3
2022-12-20T21:12:03.437Z,16.5
2022-12-20T21:14:03.504Z,17.2
2022-12-20T21:16:09.498Z,16.4
2022-12-20T21:18:03.813Z,16.3
2022-12-20T21:20:03.529Z,16.3
2022-12-20T21:22:03.227Z,16.8
2022-12-20T21:24:02.780Z,15.4
2022-12-20T21:26:03.824Z,15.8
2022-12-20T21:28:03.192Z,16.1
2022-12-20T21:30:05.253Z,15.3
2022-12-20T21:32:03.536Z,15.3
2022-12-20T21:34:03.582Z,16.4
2022-12-20T21:36:04.916Z,16.1
2022-12-20T21:38:03.071Z,15.6
2022-12-20T21:40:02.897Z,16.4
2022-12-20T21:42:03.597Z,16.4
2022-12-20T21:44:02.903Z,16.5
2022-12-20T21:46:03.960Z,15.9
2022-12-20T21:48:03.267Z,16.2
2022-12-20T21:50:03.567Z,16.0
2022-12-20T21:52:02.706Z,15.8
2022-12-20T21:54:04.925Z,16.4
2022-12-20T21:56:03.768Z,15.9
2022-12-20T21:58:02.862Z,15.9
2022-12-20T22:00:03.508Z,16.4
2022-12-20T22:02:03.748Z,16.1
2022-12-20T22:04:03.906Z,16.8
2022-12-20T22:06:03.396Z,16.2
2022-12-20T22:08:02.745Z,16.5
2022-12-20T22:10:02.936Z,16.6
2022-12-20T22:12:02.716Z,16.6
2022-12-20T22:14:03.891Z,16.0
2022-12-20T22:16:06.677Z,15.5
2022-12-20T22:18:02.977Z,16.7
2022-12-20T22:20:02.721Z,16.0
2022-12-20T22:22:03.268Z,17.7
2022-12-20T22:24:03.975Z,17.0
2022-12-20T22:26:04.070Z,16.2
2022-12-20T22:28:03.697Z,16.9
2022-12-20T22:30:03.592Z,17.0
2022-12-20T22:32:02.793Z,16.7
2022-12-20T22:34:04.905Z,16.7
2022-12-20T22:36:03.732Z,16.0
2022-12-20T22:38:03.520Z,17.0
2022-12-20T22:40:02.877Z,16.1
2022-12-20T22:42:02.929Z,17.6
2022-12-20T22:44:03.847Z,15.6
2022-12-20T22:46:03.161Z,16.9
2022-12-20T22:48:03.476Z,17.3
2022-12-20T22:50:04.580Z,17.2
2022-12-20T22:52:07.372Z,16.6
2022-12-20T22:54:03.062Z,17.5
2022-12-20T22:56:04.218Z,16.8
2022-12-20T22:58:02.968Z,18.2
2022-12-20T23:00:03.932Z,17.9
2022-12-20T23:02:03.196Z,17.7
2022-12-20T23:04:02.838Z,17.7
2022-12-20T23:06:05.213Z,17.3
2022-12-20T23:08:02.748Z,17.7
2022-12-20T23:10:03.102Z,17.4
2022-12-20T23:12:12.184Z,17.3
2022-12-20T23:14:12.889Z,18.5
2022-12-20T23:16:02.811Z,18.3
2022-12-20T23:18:03.127Z,18.2
2022-12-20T23:20:13.065Z,18.2
2022-12-20T23:22:12.341Z,17.4
2022-12-20T23:24:02.740Z,18.8
2022-12-20T23:26:10.814Z,18.0
2022-12-20T23:28:02.692Z,19.0
2022-12-20T23:30:04.335Z,17.6
2022-12-20T23:32:02.844Z,17.3
2022-12-20T23:34:04.179Z,18.0
2022-12-20T23:36:05.709Z,18.3
2022-12-20T23:38:02.974Z,18.0
2022-12-20T23:40:03.281Z,17.1
2022-12-20T23:42:03.809Z,17.6
2022-12-20T23:44:05.391Z,18.5
2022-12-20T23:46:05.677Z,17.6
2022-12-20T23:48:02.701Z,18.5
2022-12-20T23:50:03.962Z,17.2
2022-12-20T23:52:03.420Z,17.8
2022-12-20T23:54:03.687Z,18.1
2022-12-20T23:56:05.766Z,17.8
2022-12-20T23:58:02.842Z,18.3
